sensor_id;sensor_type;location;lat;lon;timestamp;P1;durP1;ratioP1;P2;durP2;ratioP2
64339;SDS011;63709;53.258;-8.814;2023-04-16T00:00:50;7.50;;;4.40;;
64339;SDS011;63709;53.258;-8.814;2023-04-16T00:03:16;4.20;;;3.25;;
64339;SDS011;63709;53.258;-8.814;2023-04-16T00:05:42;6.13;;;3.50;;
64339;SDS011;63709;53.258;-8.814;2023-04-16T00:08:08;5.10;;;3.67;;
64339;SDS011;63709;53.258;-8.814;2023-04-16T00:10:33;5.82;;;4.00;;
64339;SDS011;63709;53.258;-8.814;2023-04-16T00:12:59;5.43;;;3.65;;
64339;SDS011;63709;53.258;-8.814;2023-04-16T00:15:25;5.75;;;3.50;;
64339;SDS011;63709;53.258;-8.814;2023-04-16T00:17:52;7.07;;;3.95;;
64339;SDS011;63709;53.258;-8.814;2023-04-16T00:20:17;6.45;;;3.42;;
64339;SDS011;63709;53.258;-8.814;2023-04-16T00:22:44;6.90;;;3.47;;
64339;SDS011;63709;53.258;-8.814;2023-04-16T00:25:10;4.53;;;3.58;;
64339;SDS011;63709;53.258;-8.814;2023-04-16T00:27:36;7.10;;;3.92;;
64339;SDS011;63709;53.258;-8.814;2023-04-16T00:30:02;5.75;;;3.78;;
64339;SDS011;63709;53.258;-8.814;2023-04-16T00:32:28;5.72;;;3.95;;
64339;SDS011;63709;53.258;-8.814;2023-04-16T00:34:54;7.18;;;4.30;;
64339;SDS011;63709;53.258;-8.814;2023-04-16T00:37:20;6.28;;;4.25;;
64339;SDS011;63709;53.258;-8.814;2023-04-16T00:39:46;7.75;;;4.35;;
64339;SDS011;63709;53.258;-8.814;2023-04-16T00:42:12;7.03;;;4.45;;
64339;SDS011;63709;53.258;-8.814;2023-04-16T00:44:38;6.45;;;4.00;;
64339;SDS011;63709;53.258;-8.814;2023-04-16T00:47:04;6.57;;;4.20;;
64339;SDS011;63709;53.258;-8.814;2023-04-16T00:49:32;7.13;;;4.75;;
64339;SDS011;63709;53.258;-8.814;2023-04-16T00:52:04;6.40;;;4.18;;
64339;SDS011;63709;53.258;-8.814;2023-04-16T00:54:30;6.70;;;4.13;;
64339;SDS011;63709;53.258;-8.814;2023-04-16T00:59:26;6.57;;;4.43;;
64339;SDS011;63709;53.258;-8.814;2023-04-16T01:04:18;10.88;;;4.90;;
64339;SDS011;63709;53.258;-8.814;2023-04-16T01:06:44;6.55;;;4.50;;
64339;SDS011;63709;53.258;-8.814;2023-04-16T01:09:10;7.47;;;4.82;;
64339;SDS011;63709;53.258;-8.814;2023-04-16T01:11:36;7.85;;;4.63;;
64339;SDS011;63709;53.258;-8.814;2023-04-16T01:14:02;10.77;;;4.97;;
64339;SDS011;63709;53.258;-8.814;2023-04-16T01:16:28;6.35;;;4.53;;
64339;SDS011;63709;53.258;-8.814;2023-04-16T01:18:55;10.32;;;5.65;;
64339;SDS011;63709;53.258;-8.814;2023-04-16T01:21:21;9.23;;;5.28;;
64339;SDS011;63709;53.258;-8.814;2023-04-16T01:23:47;9.77;;;5.75;;
64339;SDS011;63709;53.258;-8.814;2023-04-16T01:26:13;8.73;;;5.15;;
64339;SDS011;63709;53.258;-8.814;2023-04-16T01:28:38;9.77;;;5.20;;
64339;SDS011;63709;53.258;-8.814;2023-04-16T01:31:05;9.65;;;5.10;;
64339;SDS011;63709;53.258;-8.814;2023-04-16T01:33:32;7.95;;;5.38;;
64339;SDS011;63709;53.258;-8.814;2023-04-16T01:35:57;15.13;;;5.75;;
64339;SDS011;63709;53.258;-8.814;2023-04-16T01:38:23;12.57;;;5.68;;
64339;SDS011;63709;53.258;-8.814;2023-04-16T01:40:48;10.88;;;5.68;;
64339;SDS011;63709;53.258;-8.814;2023-04-16T01:43:14;7.25;;;4.95;;
64339;SDS011;63709;53.258;-8.814;2023-04-16T01:45:41;11.35;;;5.22;;
64339;SDS011;63709;53.258;-8.814;2023-04-16T01:50:33;13.95;;;5.18;;
64339;SDS011;63709;53.258;-8.814;2023-04-16T01:53:00;9.50;;;4.80;;
64339;SDS011;63709;53.258;-8.814;2023-04-16T01:55:29;10.63;;;5.00;;
64339;SDS011;63709;53.258;-8.814;2023-04-16T01:57:56;11.05;;;4.88;;
64339;SDS011;63709;53.258;-8.814;2023-04-16T02:00:21;14.52;;;5.43;;
64339;SDS011;63709;53.258;-8.814;2023-04-16T02:02:48;8.43;;;5.50;;
64339;SDS011;63709;53.258;-8.814;2023-04-16T02:05:19;9.80;;;5.75;;
64339;SDS011;63709;53.258;-8.814;2023-04-16T02:07:45;8.98;;;5.20;;
64339;SDS011;63709;53.258;-8.814;2023-04-16T02:10:11;11.43;;;6.22;;
64339;SDS011;63709;53.258;-8.814;2023-04-16T02:12:38;12.95;;;5.80;;
64339;SDS011;63709;53.258;-8.814;2023-04-16T02:15:03;10.55;;;5.65;;
64339;SDS011;63709;53.258;-8.814;2023-04-16T02:17:29;9.27;;;5.25;;
64339;SDS011;63709;53.258;-8.814;2023-04-16T02:19:55;10.18;;;5.32;;
64339;SDS011;63709;53.258;-8.814;2023-04-16T02:22:21;12.52;;;5.55;;
64339;SDS011;63709;53.258;-8.814;2023-04-16T02:24:47;11.13;;;5.72;;
64339;SDS011;63709;53.258;-8.814;2023-04-16T02:27:15;12.77;;;6.30;;
64339;SDS011;63709;53.258;-8.814;2023-04-16T02:29:40;13.07;;;5.88;;
64339;SDS011;63709;53.258;-8.814;2023-04-16T02:32:07;13.63;;;7.07;;
64339;SDS011;63709;53.258;-8.814;2023-04-16T02:34:33;11.98;;;6.13;;
64339;SDS011;63709;53.258;-8.814;2023-04-16T02:37:00;14.63;;;6.45;;
64339;SDS011;63709;53.258;-8.814;2023-04-16T02:39:27;9.68;;;6.18;;
64339;SDS011;63709;53.258;-8.814;2023-04-16T02:41:54;11.00;;;6.68;;
64339;SDS011;63709;53.258;-8.814;2023-04-16T02:44:20;14.25;;;6.63;;
64339;SDS011;63709;53.258;-8.814;2023-04-16T02:46:45;13.93;;;7.25;;
64339;SDS011;63709;53.258;-8.814;2023-04-16T02:49:12;13.73;;;7.03;;
64339;SDS011;63709;53.258;-8.814;2023-04-16T02:51:38;14.88;;;7.72;;
64339;SDS011;63709;53.258;-8.814;2023-04-16T02:54:03;14.00;;;7.18;;
64339;SDS011;63709;53.258;-8.814;2023-04-16T02:56:28;16.52;;;7.05;;
64339;SDS011;63709;53.258;-8.814;2023-04-16T02:58:54;13.48;;;7.03;;
64339;SDS011;63709;53.258;-8.814;2023-04-16T03:01:21;13.65;;;7.55;;
64339;SDS011;63709;53.258;-8.814;2023-04-16T03:03:46;14.65;;;6.90;;
64339;SDS011;63709;53.258;-8.814;2023-04-16T03:06:12;13.55;;;6.82;;
64339;SDS011;63709;53.258;-8.814;2023-04-16T03:08:37;16.60;;;7.82;;
64339;SDS011;63709;53.258;-8.814;2023-04-16T03:11:03;16.33;;;7.83;;
64339;SDS011;63709;53.258;-8.814;2023-04-16T03:13:28;17.50;;;7.03;;
64339;SDS011;63709;53.258;-8.814;2023-04-16T03:15:54;16.38;;;7.68;;
64339;SDS011;63709;53.258;-8.814;2023-04-16T03:18:21;14.30;;;6.57;;
64339;SDS011;63709;53.258;-8.814;2023-04-16T03:20:50;19.88;;;7.78;;
64339;SDS011;63709;53.258;-8.814;2023-04-16T03:23:16;18.45;;;7.20;;
64339;SDS011;63709;53.258;-8.814;2023-04-16T03:25:43;11.45;;;6.63;;
64339;SDS011;63709;53.258;-8.814;2023-04-16T03:28:12;12.02;;;7.20;;
64339;SDS011;63709;53.258;-8.814;2023-04-16T03:30:39;11.80;;;6.25;;
64339;SDS011;63709;53.258;-8.814;2023-04-16T03:33:05;15.82;;;7.28;;
64339;SDS011;63709;53.258;-8.814;2023-04-16T03:35:32;14.18;;;7.25;;
64339;SDS011;63709;53.258;-8.814;2023-04-16T03:37:58;14.23;;;6.45;;
64339;SDS011;63709;53.258;-8.814;2023-04-16T03:40:24;18.17;;;7.20;;
64339;SDS011;63709;53.258;-8.814;2023-04-16T03:42:50;15.55;;;7.65;;
64339;SDS011;63709;53.258;-8.814;2023-04-16T03:45:17;18.98;;;7.80;;
64339;SDS011;63709;53.258;-8.814;2023-04-16T03:47:43;21.42;;;7.45;;
64339;SDS011;63709;53.258;-8.814;2023-04-16T03:50:14;16.00;;;7.63;;
64339;SDS011;63709;53.258;-8.814;2023-04-16T03:52:40;16.52;;;6.75;;
64339;SDS011;63709;53.258;-8.814;2023-04-16T03:55:06;14.35;;;6.65;;
64339;SDS011;63709;53.258;-8.814;2023-04-16T03:57:32;14.15;;;7.60;;
64339;SDS011;63709;53.258;-8.814;2023-04-16T03:59:58;12.60;;;6.50;;
64339;SDS011;63709;53.258;-8.814;2023-04-16T04:02:24;18.80;;;7.03;;
64339;SDS011;63709;53.258;-8.814;2023-04-16T04:04:49;16.58;;;7.70;;
64339;SDS011;63709;53.258;-8.814;2023-04-16T04:07:15;23.27;;;7.60;;
64339;SDS011;63709;53.258;-8.814;2023-04-16T04:09:42;15.23;;;7.25;;
64339;SDS011;63709;53.258;-8.814;2023-04-16T04:12:08;14.77;;;7.47;;
64339;SDS011;63709;53.258;-8.814;2023-04-16T04:14:34;19.50;;;7.47;;
64339;SDS011;63709;53.258;-8.814;2023-04-16T04:17:04;15.13;;;7.03;;
64339;SDS011;63709;53.258;-8.814;2023-04-16T04:19:31;16.33;;;7.22;;
64339;SDS011;63709;53.258;-8.814;2023-04-16T04:21:59;17.55;;;7.60;;
64339;SDS011;63709;53.258;-8.814;2023-04-16T04:24:24;15.13;;;6.85;;
64339;SDS011;63709;53.258;-8.814;2023-04-16T04:26:51;13.60;;;6.97;;
64339;SDS011;63709;53.258;-8.814;2023-04-16T04:29:17;15.98;;;7.35;;
64339;SDS011;63709;53.258;-8.814;2023-04-16T04:31:44;17.52;;;7.47;;
64339;SDS011;63709;53.258;-8.814;2023-04-16T04:34:09;19.00;;;7.85;;
64339;SDS011;63709;53.258;-8.814;2023-04-16T04:36:35;14.20;;;7.22;;
64339;SDS011;63709;53.258;-8.814;2023-04-16T04:39:00;19.00;;;7.43;;
64339;SDS011;63709;53.258;-8.814;2023-04-16T04:41:26;15.48;;;7.10;;
64339;SDS011;63709;53.258;-8.814;2023-04-16T04:43:51;15.00;;;6.50;;
64339;SDS011;63709;53.258;-8.814;2023-04-16T04:46:17;14.00;;;6.55;;
64339;SDS011;63709;53.258;-8.814;2023-04-16T04:48:42;16.42;;;6.78;;
64339;SDS011;63709;53.258;-8.814;2023-04-16T04:51:08;16.40;;;6.40;;
64339;SDS011;63709;53.258;-8.814;2023-04-16T04:53:34;14.68;;;6.40;;
64339;SDS011;63709;53.258;-8.814;2023-04-16T04:55:59;19.38;;;6.63;;
64339;SDS011;63709;53.258;-8.814;2023-04-16T04:58:26;16.45;;;6.15;;
64339;SDS011;63709;53.258;-8.814;2023-04-16T05:00:51;24.10;;;6.85;;
64339;SDS011;63709;53.258;-8.814;2023-04-16T05:03:21;19.20;;;6.82;;
64339;SDS011;63709;53.258;-8.814;2023-04-16T05:05:48;19.67;;;6.15;;
64339;SDS011;63709;53.258;-8.814;2023-04-16T05:08:15;17.77;;;6.15;;
64339;SDS011;63709;53.258;-8.814;2023-04-16T05:10:41;21.80;;;6.03;;
64339;SDS011;63709;53.258;-8.814;2023-04-16T05:13:07;15.85;;;5.88;;
64339;SDS011;63709;53.258;-8.814;2023-04-16T05:15:33;30.63;;;6.47;;
64339;SDS011;63709;53.258;-8.814;2023-04-16T05:17:59;26.33;;;7.03;;
64339;SDS011;63709;53.258;-8.814;2023-04-16T05:20:25;22.13;;;6.57;;
64339;SDS011;63709;53.258;-8.814;2023-04-16T05:22:51;23.48;;;6.88;;
64339;SDS011;63709;53.258;-8.814;2023-04-16T05:25:17;23.38;;;6.25;;
64339;SDS011;63709;53.258;-8.814;2023-04-16T05:27:42;25.52;;;6.32;;
64339;SDS011;63709;53.258;-8.814;2023-04-16T05:30:08;22.05;;;6.43;;
64339;SDS011;63709;53.258;-8.814;2023-04-16T05:32:34;22.33;;;5.72;;
64339;SDS011;63709;53.258;-8.814;2023-04-16T05:35:01;17.17;;;5.45;;
64339;SDS011;63709;53.258;-8.814;2023-04-16T05:37:26;17.95;;;5.47;;
64339;SDS011;63709;53.258;-8.814;2023-04-16T05:39:52;23.33;;;5.55;;
64339;SDS011;63709;53.258;-8.814;2023-04-16T05:42:17;26.52;;;6.63;;
64339;SDS011;63709;53.258;-8.814;2023-04-16T05:44:43;22.45;;;5.60;;
64339;SDS011;63709;53.258;-8.814;2023-04-16T05:47:08;20.67;;;5.43;;
64339;SDS011;63709;53.258;-8.814;2023-04-16T05:49:34;23.30;;;5.57;;
64339;SDS011;63709;53.258;-8.814;2023-04-16T05:52:02;18.30;;;5.20;;
64339;SDS011;63709;53.258;-8.814;2023-04-16T05:54:28;25.45;;;5.55;;
64339;SDS011;63709;53.258;-8.814;2023-04-16T05:56:56;23.95;;;6.38;;
64339;SDS011;63709;53.258;-8.814;2023-04-16T05:59:22;20.48;;;5.78;;
64339;SDS011;63709;53.258;-8.814;2023-04-16T06:01:48;21.88;;;6.15;;
64339;SDS011;63709;53.258;-8.814;2023-04-16T06:04:15;23.25;;;5.80;;
64339;SDS011;63709;53.258;-8.814;2023-04-16T06:06:42;19.42;;;5.63;;
64339;SDS011;63709;53.258;-8.814;2023-04-16T06:09:08;19.08;;;6.05;;
64339;SDS011;63709;53.258;-8.814;2023-04-16T06:11:34;18.65;;;5.90;;
64339;SDS011;63709;53.258;-8.814;2023-04-16T06:14:00;26.40;;;6.38;;
64339;SDS011;63709;53.258;-8.814;2023-04-16T06:16:27;24.70;;;7.53;;
64339;SDS011;63709;53.258;-8.814;2023-04-16T06:18:54;18.35;;;5.80;;
64339;SDS011;63709;53.258;-8.814;2023-04-16T06:21:20;22.00;;;6.18;;
64339;SDS011;63709;53.258;-8.814;2023-04-16T06:23:46;16.98;;;5.95;;
64339;SDS011;63709;53.258;-8.814;2023-04-16T06:26:12;16.13;;;5.40;;
64339;SDS011;63709;53.258;-8.814;2023-04-16T06:28:37;20.90;;;5.75;;
64339;SDS011;63709;53.258;-8.814;2023-04-16T06:31:03;19.52;;;5.70;;
64339;SDS011;63709;53.258;-8.814;2023-04-16T06:33:29;16.95;;;5.47;;
64339;SDS011;63709;53.258;-8.814;2023-04-16T06:35:54;25.77;;;5.70;;
64339;SDS011;63709;53.258;-8.814;2023-04-16T06:38:20;23.23;;;6.15;;
64339;SDS011;63709;53.258;-8.814;2023-04-16T06:40:47;23.30;;;5.88;;
64339;SDS011;63709;53.258;-8.814;2023-04-16T06:43:14;23.50;;;5.95;;
64339;SDS011;63709;53.258;-8.814;2023-04-16T06:45:40;16.42;;;5.80;;
64339;SDS011;63709;53.258;-8.814;2023-04-16T06:48:06;20.88;;;6.15;;
64339;SDS011;63709;53.258;-8.814;2023-04-16T06:50:31;13.23;;;5.78;;
64339;SDS011;63709;53.258;-8.814;2023-04-16T06:52:59;18.75;;;6.78;;
64339;SDS011;63709;53.258;-8.814;2023-04-16T06:55:25;31.52;;;5.93;;
64339;SDS011;63709;53.258;-8.814;2023-04-16T06:57:51;27.13;;;6.35;;
64339;SDS011;63709;53.258;-8.814;2023-04-16T07:00:17;24.52;;;6.43;;
64339;SDS011;63709;53.258;-8.814;2023-04-16T07:02:43;15.10;;;5.30;;
64339;SDS011;63709;53.258;-8.814;2023-04-16T07:05:08;14.73;;;5.40;;
64339;SDS011;63709;53.258;-8.814;2023-04-16T07:07:40;18.20;;;5.43;;
64339;SDS011;63709;53.258;-8.814;2023-04-16T07:10:06;24.02;;;6.30;;
64339;SDS011;63709;53.258;-8.814;2023-04-16T07:12:32;19.88;;;5.95;;
64339;SDS011;63709;53.258;-8.814;2023-04-16T07:14:59;19.02;;;5.50;;
64339;SDS011;63709;53.258;-8.814;2023-04-16T07:17:26;28.25;;;5.70;;
64339;SDS011;63709;53.258;-8.814;2023-04-16T07:19:52;24.63;;;6.43;;
64339;SDS011;63709;53.258;-8.814;2023-04-16T07:22:18;19.08;;;5.15;;
64339;SDS011;63709;53.258;-8.814;2023-04-16T07:24:44;18.35;;;5.65;;
64339;SDS011;63709;53.258;-8.814;2023-04-16T07:27:09;21.13;;;5.82;;
64339;SDS011;63709;53.258;-8.814;2023-04-16T07:29:36;18.30;;;5.38;;
64339;SDS011;63709;53.258;-8.814;2023-04-16T07:32:02;15.00;;;4.95;;
64339;SDS011;63709;53.258;-8.814;2023-04-16T07:34:28;16.58;;;4.80;;
64339;SDS011;63709;53.258;-8.814;2023-04-16T07:36:53;12.13;;;5.10;;
64339;SDS011;63709;53.258;-8.814;2023-04-16T07:39:19;28.10;;;6.65;;
64339;SDS011;63709;53.258;-8.814;2023-04-16T07:41:51;17.05;;;4.72;;
64339;SDS011;63709;53.258;-8.814;2023-04-16T07:44:16;18.00;;;4.70;;
64339;SDS011;63709;53.258;-8.814;2023-04-16T07:46:42;21.75;;;5.30;;
64339;SDS011;63709;53.258;-8.814;2023-04-16T07:49:07;21.27;;;5.60;;
64339;SDS011;63709;53.258;-8.814;2023-04-16T07:51:33;12.55;;;5.50;;
64339;SDS011;63709;53.258;-8.814;2023-04-16T07:53:58;15.80;;;5.32;;
64339;SDS011;63709;53.258;-8.814;2023-04-16T07:56:24;26.15;;;6.00;;
64339;SDS011;63709;53.258;-8.814;2023-04-16T07:58:50;26.70;;;5.60;;
64339;SDS011;63709;53.258;-8.814;2023-04-16T08:01:16;17.95;;;5.65;;
64339;SDS011;63709;53.258;-8.814;2023-04-16T08:03:42;19.90;;;5.57;;
64339;SDS011;63709;53.258;-8.814;2023-04-16T08:06:07;19.42;;;5.53;;
64339;SDS011;63709;53.258;-8.814;2023-04-16T08:08:34;23.38;;;6.35;;
64339;SDS011;63709;53.258;-8.814;2023-04-16T08:11:01;20.67;;;6.45;;
64339;SDS011;63709;53.258;-8.814;2023-04-16T08:13:28;17.35;;;5.28;;
64339;SDS011;63709;53.258;-8.814;2023-04-16T08:15:55;14.88;;;4.25;;
64339;SDS011;63709;53.258;-8.814;2023-04-16T08:18:21;17.27;;;4.95;;
64339;SDS011;63709;53.258;-8.814;2023-04-16T08:20:46;16.95;;;4.80;;
64339;SDS011;63709;53.258;-8.814;2023-04-16T08:23:12;14.48;;;4.55;;
64339;SDS011;63709;53.258;-8.814;2023-04-16T08:25:38;29.55;;;4.88;;
64339;SDS011;63709;53.258;-8.814;2023-04-16T08:28:04;19.27;;;4.45;;
64339;SDS011;63709;53.258;-8.814;2023-04-16T08:30:30;19.33;;;5.13;;
64339;SDS011;63709;53.258;-8.814;2023-04-16T08:32:56;22.90;;;5.20;;
64339;SDS011;63709;53.258;-8.814;2023-04-16T08:35:22;30.85;;;5.22;;
64339;SDS011;63709;53.258;-8.814;2023-04-16T08:37:48;17.85;;;4.95;;
64339;SDS011;63709;53.258;-8.814;2023-04-16T08:40:15;15.02;;;5.25;;
64339;SDS011;63709;53.258;-8.814;2023-04-16T08:42:46;17.85;;;4.43;;
64339;SDS011;63709;53.258;-8.814;2023-04-16T08:45:18;15.70;;;4.50;;
64339;SDS011;63709;53.258;-8.814;2023-04-16T08:47:45;20.52;;;5.03;;
64339;SDS011;63709;53.258;-8.814;2023-04-16T08:50:13;19.23;;;4.47;;
64339;SDS011;63709;53.258;-8.814;2023-04-16T08:52:58;18.25;;;4.57;;
64339;SDS011;63709;53.258;-8.814;2023-04-16T08:55:41;24.38;;;5.43;;
64339;SDS011;63709;53.258;-8.814;2023-04-16T08:58:15;14.63;;;4.70;;
64339;SDS011;63709;53.258;-8.814;2023-04-16T09:00:43;13.90;;;4.43;;
64339;SDS011;63709;53.258;-8.814;2023-04-16T09:03:16;16.95;;;4.85;;
64339;SDS011;63709;53.258;-8.814;2023-04-16T09:05:46;15.02;;;4.30;;
64339;SDS011;63709;53.258;-8.814;2023-04-16T09:08:13;10.98;;;3.83;;
64339;SDS011;63709;53.258;-8.814;2023-04-16T09:10:39;19.45;;;4.70;;
64339;SDS011;63709;53.258;-8.814;2023-04-16T09:13:05;15.65;;;4.40;;
64339;SDS011;63709;53.258;-8.814;2023-04-16T09:15:32;15.93;;;3.50;;
64339;SDS011;63709;53.258;-8.814;2023-04-16T09:18:00;21.30;;;4.70;;
64339;SDS011;63709;53.258;-8.814;2023-04-16T09:22:57;10.43;;;3.90;;
64339;SDS011;63709;53.258;-8.814;2023-04-16T09:25:23;18.50;;;4.00;;
64339;SDS011;63709;53.258;-8.814;2023-04-16T09:27:50;16.40;;;4.22;;
64339;SDS011;63709;53.258;-8.814;2023-04-16T09:30:19;16.67;;;4.68;;
64339;SDS011;63709;53.258;-8.814;2023-04-16T09:32:50;13.60;;;3.60;;
64339;SDS011;63709;53.258;-8.814;2023-04-16T09:35:18;13.40;;;4.00;;
64339;SDS011;63709;53.258;-8.814;2023-04-16T09:37:53;9.98;;;3.00;;
64339;SDS011;63709;53.258;-8.814;2023-04-16T09:40:24;7.28;;;2.80;;
64339;SDS011;63709;53.258;-8.814;2023-04-16T09:42:55;11.52;;;3.72;;
64339;SDS011;63709;53.258;-8.814;2023-04-16T09:45:23;11.32;;;3.95;;
64339;SDS011;63709;53.258;-8.814;2023-04-16T09:47:50;9.23;;;2.83;;
64339;SDS011;63709;53.258;-8.814;2023-04-16T09:50:17;6.38;;;2.50;;
64339;SDS011;63709;53.258;-8.814;2023-04-16T09:52:47;5.97;;;2.40;;
64339;SDS011;63709;53.258;-8.814;2023-04-16T09:55:21;5.65;;;1.90;;
64339;SDS011;63709;53.258;-8.814;2023-04-16T09:57:48;12.23;;;2.85;;
64339;SDS011;63709;53.258;-8.814;2023-04-16T10:00:23;12.32;;;2.38;;
64339;SDS011;63709;53.258;-8.814;2023-04-16T10:02:51;4.75;;;2.63;;
64339;SDS011;63709;53.258;-8.814;2023-04-16T10:05:28;7.95;;;2.40;;
64339;SDS011;63709;53.258;-8.814;2023-04-16T10:07:57;11.50;;;2.97;;
64339;SDS011;63709;53.258;-8.814;2023-04-16T10:10:26;5.72;;;2.30;;
64339;SDS011;63709;53.258;-8.814;2023-04-16T10:12:58;6.97;;;2.40;;
64339;SDS011;63709;53.258;-8.814;2023-04-16T10:15:25;7.35;;;2.30;;
64339;SDS011;63709;53.258;-8.814;2023-04-16T10:17:51;7.07;;;2.42;;
64339;SDS011;63709;53.258;-8.814;2023-04-16T10:20:18;11.13;;;2.58;;
64339;SDS011;63709;53.258;-8.814;2023-04-16T10:22:44;9.57;;;2.50;;
64339;SDS011;63709;53.258;-8.814;2023-04-16T10:25:10;8.63;;;2.13;;
64339;SDS011;63709;53.258;-8.814;2023-04-16T10:27:37;6.88;;;2.40;;
64339;SDS011;63709;53.258;-8.814;2023-04-16T10:30:07;8.75;;;2.40;;
64339;SDS011;63709;53.258;-8.814;2023-04-16T10:32:33;9.02;;;3.05;;
64339;SDS011;63709;53.258;-8.814;2023-04-16T10:35:00;12.02;;;2.63;;
64339;SDS011;63709;53.258;-8.814;2023-04-16T10:37:30;7.50;;;2.42;;
64339;SDS011;63709;53.258;-8.814;2023-04-16T10:39:57;9.18;;;2.40;;
64339;SDS011;63709;53.258;-8.814;2023-04-16T10:42:24;9.55;;;2.05;;
64339;SDS011;63709;53.258;-8.814;2023-04-16T10:47:15;7.03;;;2.42;;
64339;SDS011;63709;53.258;-8.814;2023-04-16T10:49:43;8.52;;;2.25;;
64339;SDS011;63709;53.258;-8.814;2023-04-16T10:52:13;6.25;;;2.22;;
64339;SDS011;63709;53.258;-8.814;2023-04-16T10:54:42;7.53;;;2.33;;
64339;SDS011;63709;53.258;-8.814;2023-04-16T10:57:09;5.20;;;2.28;;
64339;SDS011;63709;53.258;-8.814;2023-04-16T10:59:42;9.32;;;2.63;;
64339;SDS011;63709;53.258;-8.814;2023-04-16T11:02:17;6.78;;;2.35;;
64339;SDS011;63709;53.258;-8.814;2023-04-16T11:04:44;9.60;;;2.60;;
64339;SDS011;63709;53.258;-8.814;2023-04-16T11:12:12;5.95;;;2.30;;
64339;SDS011;63709;53.258;-8.814;2023-04-16T11:14:40;9.05;;;3.10;;
64339;SDS011;63709;53.258;-8.814;2023-04-16T11:17:08;10.63;;;2.60;;
64339;SDS011;63709;53.258;-8.814;2023-04-16T11:19:36;6.75;;;1.90;;
64339;SDS011;63709;53.258;-8.814;2023-04-16T11:22:02;7.03;;;2.20;;
64339;SDS011;63709;53.258;-8.814;2023-04-16T11:24:29;6.70;;;2.30;;
64339;SDS011;63709;53.258;-8.814;2023-04-16T11:27:01;5.25;;;1.80;;
64339;SDS011;63709;53.258;-8.814;2023-04-16T11:29:28;9.25;;;2.50;;
64339;SDS011;63709;53.258;-8.814;2023-04-16T11:31:55;9.80;;;2.08;;
64339;SDS011;63709;53.258;-8.814;2023-04-16T11:34:20;6.22;;;1.88;;
64339;SDS011;63709;53.258;-8.814;2023-04-16T11:36:46;7.25;;;2.25;;
64339;SDS011;63709;53.258;-8.814;2023-04-16T11:39:21;7.45;;;2.10;;
64339;SDS011;63709;53.258;-8.814;2023-04-16T11:41:48;5.30;;;1.73;;
64339;SDS011;63709;53.258;-8.814;2023-04-16T11:44:18;5.22;;;1.85;;
64339;SDS011;63709;53.258;-8.814;2023-04-16T11:46:57;9.27;;;2.17;;
64339;SDS011;63709;53.258;-8.814;2023-04-16T11:49:30;7.43;;;2.15;;
64339;SDS011;63709;53.258;-8.814;2023-04-16T11:51:56;9.45;;;1.90;;
64339;SDS011;63709;53.258;-8.814;2023-04-16T11:54:24;8.70;;;2.60;;
64339;SDS011;63709;53.258;-8.814;2023-04-16T11:56:50;5.20;;;1.90;;
64339;SDS011;63709;53.258;-8.814;2023-04-16T11:59:21;9.02;;;2.42;;
64339;SDS011;63709;53.258;-8.814;2023-04-16T12:01:48;9.85;;;2.42;;
64339;SDS011;63709;53.258;-8.814;2023-04-16T12:04:21;7.20;;;2.00;;
64339;SDS011;63709;53.258;-8.814;2023-04-16T12:07:03;10.10;;;2.00;;
64339;SDS011;63709;53.258;-8.814;2023-04-16T12:09:38;8.07;;;2.10;;
64339;SDS011;63709;53.258;-8.814;2023-04-16T12:14:55;6.88;;;1.77;;
64339;SDS011;63709;53.258;-8.814;2023-04-16T12:17:24;6.88;;;2.15;;
64339;SDS011;63709;53.258;-8.814;2023-04-16T12:19:51;4.75;;;2.00;;
64339;SDS011;63709;53.258;-8.814;2023-04-16T12:22:33;9.65;;;2.53;;
64339;SDS011;63709;53.258;-8.814;2023-04-16T12:25:05;5.18;;;1.80;;
64339;SDS011;63709;53.258;-8.814;2023-04-16T12:30:06;4.95;;;2.05;;
64339;SDS011;63709;53.258;-8.814;2023-04-16T12:32:33;7.57;;;2.70;;
64339;SDS011;63709;53.258;-8.814;2023-04-16T12:34:59;5.20;;;2.00;;
64339;SDS011;63709;53.258;-8.814;2023-04-16T12:37:25;6.15;;;2.25;;
64339;SDS011;63709;53.258;-8.814;2023-04-16T12:39:52;5.50;;;2.08;;
64339;SDS011;63709;53.258;-8.814;2023-04-16T12:42:20;6.72;;;1.95;;
64339;SDS011;63709;53.258;-8.814;2023-04-16T12:44:47;6.05;;;1.85;;
64339;SDS011;63709;53.258;-8.814;2023-04-16T12:47:13;6.35;;;2.05;;
64339;SDS011;63709;53.258;-8.814;2023-04-16T12:49:38;5.68;;;2.05;;
64339;SDS011;63709;53.258;-8.814;2023-04-16T12:55:01;5.28;;;2.00;;
64339;SDS011;63709;53.258;-8.814;2023-04-16T12:57:31;2.88;;;1.58;;
64339;SDS011;63709;53.258;-8.814;2023-04-16T12:59:57;5.85;;;1.85;;
64339;SDS011;63709;53.258;-8.814;2023-04-16T13:02:23;7.78;;;1.75;;
64339;SDS011;63709;53.258;-8.814;2023-04-16T13:04:50;7.72;;;1.95;;
64339;SDS011;63709;53.258;-8.814;2023-04-16T13:07:17;4.90;;;1.88;;
64339;SDS011;63709;53.258;-8.814;2023-04-16T13:09:43;5.60;;;1.80;;
64339;SDS011;63709;53.258;-8.814;2023-04-16T13:12:09;5.28;;;1.80;;
64339;SDS011;63709;53.258;-8.814;2023-04-16T13:14:37;8.00;;;2.30;;
64339;SDS011;63709;53.258;-8.814;2023-04-16T13:17:03;3.47;;;1.60;;
64339;SDS011;63709;53.258;-8.814;2023-04-16T13:19:32;2.75;;;1.35;;
64339;SDS011;63709;53.258;-8.814;2023-04-16T13:21:58;4.45;;;2.00;;
64339;SDS011;63709;53.258;-8.814;2023-04-16T13:24:24;5.25;;;1.90;;
64339;SDS011;63709;53.258;-8.814;2023-04-16T13:26:50;4.05;;;1.88;;
64339;SDS011;63709;53.258;-8.814;2023-04-16T13:29:18;6.35;;;1.90;;
64339;SDS011;63709;53.258;-8.814;2023-04-16T13:31:45;4.43;;;1.80;;
64339;SDS011;63709;53.258;-8.814;2023-04-16T13:34:11;4.85;;;1.83;;
64339;SDS011;63709;53.258;-8.814;2023-04-16T13:36:36;5.57;;;1.90;;
64339;SDS011;63709;53.258;-8.814;2023-04-16T13:39:02;5.13;;;1.63;;
64339;SDS011;63709;53.258;-8.814;2023-04-16T13:41:30;5.00;;;1.80;;
64339;SDS011;63709;53.258;-8.814;2023-04-16T13:43:56;5.60;;;2.22;;
64339;SDS011;63709;53.258;-8.814;2023-04-16T13:46:21;4.82;;;2.15;;
64339;SDS011;63709;53.258;-8.814;2023-04-16T13:48:48;6.20;;;2.03;;
64339;SDS011;63709;53.258;-8.814;2023-04-16T13:51:14;6.00;;;2.15;;
64339;SDS011;63709;53.258;-8.814;2023-04-16T13:53:40;4.65;;;1.90;;
64339;SDS011;63709;53.258;-8.814;2023-04-16T13:56:06;7.80;;;1.95;;
64339;SDS011;63709;53.258;-8.814;2023-04-16T13:58:32;6.90;;;1.92;;
64339;SDS011;63709;53.258;-8.814;2023-04-16T14:00:59;6.03;;;2.05;;
64339;SDS011;63709;53.258;-8.814;2023-04-16T14:03:25;6.35;;;2.45;;
64339;SDS011;63709;53.258;-8.814;2023-04-16T14:05:51;7.70;;;2.10;;
64339;SDS011;63709;53.258;-8.814;2023-04-16T14:08:17;5.38;;;1.90;;
64339;SDS011;63709;53.258;-8.814;2023-04-16T14:10:46;5.28;;;1.65;;
64339;SDS011;63709;53.258;-8.814;2023-04-16T14:13:12;6.57;;;1.75;;
64339;SDS011;63709;53.258;-8.814;2023-04-16T14:15:40;10.00;;;2.13;;
64339;SDS011;63709;53.258;-8.814;2023-04-16T14:18:06;5.57;;;1.92;;
64339;SDS011;63709;53.258;-8.814;2023-04-16T14:20:31;5.90;;;2.10;;
64339;SDS011;63709;53.258;-8.814;2023-04-16T14:22:57;7.18;;;2.30;;
64339;SDS011;63709;53.258;-8.814;2023-04-16T14:25:23;7.05;;;2.05;;
64339;SDS011;63709;53.258;-8.814;2023-04-16T14:27:49;3.38;;;1.70;;
64339;SDS011;63709;53.258;-8.814;2023-04-16T14:30:15;5.60;;;1.92;;
64339;SDS011;63709;53.258;-8.814;2023-04-16T14:32:41;7.03;;;2.28;;
64339;SDS011;63709;53.258;-8.814;2023-04-16T14:35:07;9.80;;;2.58;;
64339;SDS011;63709;53.258;-8.814;2023-04-16T14:37:33;6.68;;;2.10;;
64339;SDS011;63709;53.258;-8.814;2023-04-16T14:40:01;5.78;;;2.10;;
64339;SDS011;63709;53.258;-8.814;2023-04-16T14:42:35;8.45;;;2.38;;
64339;SDS011;63709;53.258;-8.814;2023-04-16T14:45:02;7.43;;;2.22;;
64339;SDS011;63709;53.258;-8.814;2023-04-16T14:47:32;7.97;;;2.00;;
64339;SDS011;63709;53.258;-8.814;2023-04-16T14:49:59;10.95;;;2.38;;